sensor_id;sensor_type;location;lat;lon;timestamp;temperature;humidity
7360;DHT22;3720;48.274;7.796;2023-05-16T00:00:27;13.90;99.90
7360;DHT22;3720;48.274;7.796;2023-05-16T00:03:00;13.90;99.90
7360;DHT22;3720;48.274;7.796;2023-05-16T00:05:33;13.90;99.90
7360;DHT22;3720;48.274;7.796;2023-05-16T00:08:05;13.90;99.90
7360;DHT22;3720;48.274;7.796;2023-05-16T00:10:37;13.90;99.90
7360;DHT22;3720;48.274;7.796;2023-05-16T00:13:09;13.90;99.90
7360;DHT22;3720;48.274;7.796;2023-05-16T00:15:43;13.90;99.90
7360;DHT22;3720;48.274;7.796;2023-05-16T00:18:15;13.90;99.90
7360;DHT22;3720;48.274;7.796;2023-05-16T00:20:47;13.90;99.90
7360;DHT22;3720;48.274;7.796;2023-05-16T00:23:20;13.90;99.90
7360;DHT22;3720;48.274;7.796;2023-05-16T00:25:52;13.90;99.90
7360;DHT22;3720;48.274;7.796;2023-05-16T00:28:24;13.90;99.90
7360;DHT22;3720;48.274;7.796;2023-05-16T00:30:58;13.90;99.90
7360;DHT22;3720;48.274;7.796;2023-05-16T00:33:30;13.90;99.90
7360;DHT22;3720;48.274;7.796;2023-05-16T00:36:01;13.90;99.90
7360;DHT22;3720;48.274;7.796;2023-05-16T00:38:33;13.90;99.90
7360;DHT22;3720;48.274;7.796;2023-05-16T00:41:06;14.00;99.90
7360;DHT22;3720;48.274;7.796;2023-05-16T00:43:38;14.00;99.90
7360;DHT22;3720;48.274;7.796;2023-05-16T00:46:11;14.00;99.90
7360;DHT22;3720;48.274;7.796;2023-05-16T00:48:43;14.00;99.90
7360;DHT22;3720;48.274;7.796;2023-05-16T00:51:16;14.00;99.90
7360;DHT22;3720;48.274;7.796;2023-05-16T00:53:48;14.00;99.90
7360;DHT22;3720;48.274;7.796;2023-05-16T00:56:21;14.00;99.90
7360;DHT22;3720;48.274;7.796;2023-05-16T00:58:53;14.00;99.90
7360;DHT22;3720;48.274;7.796;2023-05-16T01:01:27;14.00;99.90
7360;DHT22;3720;48.274;7.796;2023-05-16T01:04:00;14.00;99.90
7360;DHT22;3720;48.274;7.796;2023-05-16T01:06:32;14.00;99.90
7360;DHT22;3720;48.274;7.796;2023-05-16T01:09:04;14.00;99.90
7360;DHT22;3720;48.274;7.796;2023-05-16T01:11:45;13.90;99.90
7360;DHT22;3720;48.274;7.796;2023-05-16T01:14:28;13.90;99.90
7360;DHT22;3720;48.274;7.796;2023-05-16T01:17:07;13.80;99.90
7360;DHT22;3720;48.274;7.796;2023-05-16T01:19:52;13.80;99.90
7360;DHT22;3720;48.274;7.796;2023-05-16T01:22:33;13.70;99.90
7360;DHT22;3720;48.274;7.796;2023-05-16T01:25:20;13.70;99.90
7360;DHT22;3720;48.274;7.796;2023-05-16T01:27:54;13.70;99.90
7360;DHT22;3720;48.274;7.796;2023-05-16T01:30:32;13.70;99.90
7360;DHT22;3720;48.274;7.796;2023-05-16T01:33:06;13.70;99.90
7360;DHT22;3720;48.274;7.796;2023-05-16T01:35:42;13.80;99.90
7360;DHT22;3720;48.274;7.796;2023-05-16T01:38:24;13.70;99.90
7360;DHT22;3720;48.274;7.796;2023-05-16T01:41:01;13.70;99.90
7360;DHT22;3720;48.274;7.796;2023-05-16T01:43:41;13.70;99.90
7360;DHT22;3720;48.274;7.796;2023-05-16T01:46:18;13.70;99.90
7360;DHT22;3720;48.274;7.796;2023-05-16T01:48:56;13.70;99.90
7360;DHT22;3720;48.274;7.796;2023-05-16T01:51:31;13.70;99.90
7360;DHT22;3720;48.274;7.796;2023-05-16T01:54:05;13.70;99.90
7360;DHT22;3720;48.274;7.796;2023-05-16T01:56:42;13.80;99.90
7360;DHT22;3720;48.274;7.796;2023-05-16T01:59:20;13.80;99.90
7360;DHT22;3720;48.274;7.796;2023-05-16T02:01:53;13.80;99.90
7360;DHT22;3720;48.274;7.796;2023-05-16T02:04:25;13.80;99.90
7360;DHT22;3720;48.274;7.796;2023-05-16T02:06:57;13.90;99.90
7360;DHT22;3720;48.274;7.796;2023-05-16T02:09:29;13.90;99.90
7360;DHT22;3720;48.274;7.796;2023-05-16T02:12:01;13.80;99.90
7360;DHT22;3720;48.274;7.796;2023-05-16T02:14:35;13.80;99.90
7360;DHT22;3720;48.274;7.796;2023-05-16T02:17:07;13.90;99.90
7360;DHT22;3720;48.274;7.796;2023-05-16T02:19:39;13.90;99.90
7360;DHT22;3720;48.274;7.796;2023-05-16T02:22:11;13.90;99.90
7360;DHT22;3720;48.274;7.796;2023-05-16T02:24:43;13.90;99.90
7360;DHT22;3720;48.274;7.796;2023-05-16T02:27:15;13.90;99.90
7360;DHT22;3720;48.274;7.796;2023-05-16T02:29:49;13.90;99.90
7360;DHT22;3720;48.274;7.796;2023-05-16T02:32:21;13.90;99.90
7360;DHT22;3720;48.274;7.796;2023-05-16T02:34:52;13.90;99.90
7360;DHT22;3720;48.274;7.796;2023-05-16T02:37:25;13.90;99.90
7360;DHT22;3720;48.274;7.796;2023-05-16T02:39:56;13.90;99.90
7360;DHT22;3720;48.274;7.796;2023-05-16T02:42:28;13.90;99.90
7360;DHT22;3720;48.274;7.796;2023-05-16T02:45:03;13.90;99.90
7360;DHT22;3720;48.274;7.796;2023-05-16T02:47:35;13.90;99.90
7360;DHT22;3720;48.274;7.796;2023-05-16T02:50:07;13.90;99.90
7360;DHT22;3720;48.274;7.796;2023-05-16T02:52:39;13.90;99.90
7360;DHT22;3720;48.274;7.796;2023-05-16T02:55:11;13.90;99.90
7360;DHT22;3720;48.274;7.796;2023-05-16T02:57:43;13.90;99.90
7360;DHT22;3720;48.274;7.796;2023-05-16T03:00:17;13.90;99.90
7360;DHT22;3720;48.274;7.796;2023-05-16T03:02:50;13.90;99.90
7360;DHT22;3720;48.274;7.796;2023-05-16T03:05:22;13.80;99.90
7360;DHT22;3720;48.274;7.796;2023-05-16T03:07:53;13.80;99.90
7360;DHT22;3720;48.274;7.796;2023-05-16T03:10:25;13.90;99.90
7360;DHT22;3720;48.274;7.796;2023-05-16T03:12:57;13.80;99.90
7360;DHT22;3720;48.274;7.796;2023-05-16T03:15:31;13.80;99.90
7360;DHT22;3720;48.274;7.796;2023-05-16T03:18:03;13.80;99.90
7360;DHT22;3720;48.274;7.796;2023-05-16T03:20:35;13.70;99.90
7360;DHT22;3720;48.274;7.796;2023-05-16T03:23:07;13.70;99.90
7360;DHT22;3720;48.274;7.796;2023-05-16T03:25:39;13.60;99.90
7360;DHT22;3720;48.274;7.796;2023-05-16T03:28:12;13.70;99.90
7360;DHT22;3720;48.274;7.796;2023-05-16T03:30:46;13.70;99.90
7360;DHT22;3720;48.274;7.796;2023-05-16T03:33:18;13.70;99.90
7360;DHT22;3720;48.274;7.796;2023-05-16T03:35:50;13.70;99.90
7360;DHT22;3720;48.274;7.796;2023-05-16T03:38:23;13.60;99.90
7360;DHT22;3720;48.274;7.796;2023-05-16T03:40:55;13.60;99.90
7360;DHT22;3720;48.274;7.796;2023-05-16T03:43:27;13.60;99.90
7360;DHT22;3720;48.274;7.796;2023-05-16T03:46:01;13.60;99.90
7360;DHT22;3720;48.274;7.796;2023-05-16T03:48:33;13.50;99.90
7360;DHT22;3720;48.274;7.796;2023-05-16T03:51:05;13.50;99.90
7360;DHT22;3720;48.274;7.796;2023-05-16T03:53:37;13.50;99.90
7360;DHT22;3720;48.274;7.796;2023-05-16T03:56:09;13.50;99.90
7360;DHT22;3720;48.274;7.796;2023-05-16T03:58:41;13.50;99.90
7360;DHT22;3720;48.274;7.796;2023-05-16T04:01:15;13.50;99.90
7360;DHT22;3720;48.274;7.796;2023-05-16T04:03:46;13.50;99.90
7360;DHT22;3720;48.274;7.796;2023-05-16T04:06:18;13.50;99.90
7360;DHT22;3720;48.274;7.796;2023-05-16T04:08:50;13.40;99.90
7360;DHT22;3720;48.274;7.796;2023-05-16T04:11:22;13.40;99.90
7360;DHT22;3720;48.274;7.796;2023-05-16T04:13:54;13.40;99.90
7360;DHT22;3720;48.274;7.796;2023-05-16T04:16:27;13.40;99.90
7360;DHT22;3720;48.274;7.796;2023-05-16T04:18:59;13.40;99.90
7360;DHT22;3720;48.274;7.796;2023-05-16T04:21:33;13.30;99.90
7360;DHT22;3720;48.274;7.796;2023-05-16T04:24:06;13.30;99.90
7360;DHT22;3720;48.274;7.796;2023-05-16T04:26:39;13.30;99.90
7360;DHT22;3720;48.274;7.796;2023-05-16T04:29:10;13.40;99.90
7360;DHT22;3720;48.274;7.796;2023-05-16T04:31:45;13.30;99.90
7360;DHT22;3720;48.274;7.796;2023-05-16T04:34:17;13.20;99.90
7360;DHT22;3720;48.274;7.796;2023-05-16T04:36:49;13.20;99.90
7360;DHT22;3720;48.274;7.796;2023-05-16T04:39:21;13.20;99.90
7360;DHT22;3720;48.274;7.796;2023-05-16T04:41:53;13.20;99.90
7360;DHT22;3720;48.274;7.796;2023-05-16T04:44:28;13.20;99.90
7360;DHT22;3720;48.274;7.796;2023-05-16T04:47:01;13.20;99.90
7360;DHT22;3720;48.274;7.796;2023-05-16T04:49:33;13.20;99.90
7360;DHT22;3720;48.274;7.796;2023-05-16T04:52:06;13.10;99.90
7360;DHT22;3720;48.274;7.796;2023-05-16T04:54:38;13.10;99.90
7360;DHT22;3720;48.274;7.796;2023-05-16T04:57:10;13.10;99.90
7360;DHT22;3720;48.274;7.796;2023-05-16T04:59:42;13.10;99.90
7360;DHT22;3720;48.274;7.796;2023-05-16T05:02:15;13.00;99.90
7360;DHT22;3720;48.274;7.796;2023-05-16T05:04:47;13.00;99.90
7360;DHT22;3720;48.274;7.796;2023-05-16T05:07:19;13.00;99.90
7360;DHT22;3720;48.274;7.796;2023-05-16T05:09:51;13.00;99.90
7360;DHT22;3720;48.274;7.796;2023-05-16T05:12:25;13.00;99.90
7360;DHT22;3720;48.274;7.796;2023-05-16T05:14:58;13.00;99.90
7360;DHT22;3720;48.274;7.796;2023-05-16T05:17:31;13.10;99.90
7360;DHT22;3720;48.274;7.796;2023-05-16T05:20:03;13.10;99.90
7360;DHT22;3720;48.274;7.796;2023-05-16T05:22:38;13.20;99.90
7360;DHT22;3720;48.274;7.796;2023-05-16T05:25:09;13.20;99.90
7360;DHT22;3720;48.274;7.796;2023-05-16T05:27:41;13.10;99.90
7360;DHT22;3720;48.274;7.796;2023-05-16T05:30:13;13.10;99.90
7360;DHT22;3720;48.274;7.796;2023-05-16T05:32:47;13.00;99.90
7360;DHT22;3720;48.274;7.796;2023-05-16T05:35:18;13.10;99.90
7360;DHT22;3720;48.274;7.796;2023-05-16T05:37:51;13.00;99.90
7360;DHT22;3720;48.274;7.796;2023-05-16T05:40:23;12.90;99.90
7360;DHT22;3720;48.274;7.796;2023-05-16T05:42:55;12.90;99.90
7360;DHT22;3720;48.274;7.796;2023-05-16T05:45:26;12.90;99.90
7360;DHT22;3720;48.274;7.796;2023-05-16T05:48:00;13.00;99.90
7360;DHT22;3720;48.274;7.796;2023-05-16T05:50:32;13.00;99.90
7360;DHT22;3720;48.274;7.796;2023-05-16T05:53:05;13.10;99.90
7360;DHT22;3720;48.274;7.796;2023-05-16T05:55:36;13.30;99.90
7360;DHT22;3720;48.274;7.796;2023-05-16T05:58:11;13.40;99.90
7360;DHT22;3720;48.274;7.796;2023-05-16T06:00:43;13.40;99.90
7360;DHT22;3720;48.274;7.796;2023-05-16T06:03:17;13.40;99.90
7360;DHT22;3720;48.274;7.796;2023-05-16T06:05:50;13.30;99.90
7360;DHT22;3720;48.274;7.796;2023-05-16T06:08:22;13.20;99.90
7360;DHT22;3720;48.274;7.796;2023-05-16T06:10:54;13.20;99.90
7360;DHT22;3720;48.274;7.796;2023-05-16T06:13:27;13.20;99.90
7360;DHT22;3720;48.274;7.796;2023-05-16T06:15:58;13.10;99.90
7360;DHT22;3720;48.274;7.796;2023-05-16T06:18:42;13.10;99.90
7360;DHT22;3720;48.274;7.796;2023-05-16T06:21:14;13.10;99.90
7360;DHT22;3720;48.274;7.796;2023-05-16T06:23:46;13.10;99.90
7360;DHT22;3720;48.274;7.796;2023-05-16T06:26:18;13.10;99.90
7360;DHT22;3720;48.274;7.796;2023-05-16T06:28:52;13.00;99.90
7360;DHT22;3720;48.274;7.796;2023-05-16T06:31:24;13.00;99.90
7360;DHT22;3720;48.274;7.796;2023-05-16T06:33:57;13.00;99.90
7360;DHT22;3720;48.274;7.796;2023-05-16T06:36:29;13.00;99.90
7360;DHT22;3720;48.274;7.796;2023-05-16T06:39:01;12.90;99.90
7360;DHT22;3720;48.274;7.796;2023-05-16T06:41:34;13.00;99.90
7360;DHT22;3720;48.274;7.796;2023-05-16T06:44:06;13.10;99.90
7360;DHT22;3720;48.274;7.796;2023-05-16T06:46:38;13.10;99.90
7360;DHT22;3720;48.274;7.796;2023-05-16T06:49:11;13.10;99.90
7360;DHT22;3720;48.274;7.796;2023-05-16T06:51:43;13.10;99.90
7360;DHT22;3720;48.274;7.796;2023-05-16T06:54:15;13.10;99.90
7360;DHT22;3720;48.274;7.796;2023-05-16T06:56:47;13.10;99.90
7360;DHT22;3720;48.274;7.796;2023-05-16T06:59:19;13.10;99.90
7360;DHT22;3720;48.274;7.796;2023-05-16T07:01:51;13.10;99.90
7360;DHT22;3720;48.274;7.796;2023-05-16T07:04:24;13.10;99.90
7360;DHT22;3720;48.274;7.796;2023-05-16T07:06:56;13.10;99.90
7360;DHT22;3720;48.274;7.796;2023-05-16T07:09:28;13.10;99.90
7360;DHT22;3720;48.274;7.796;2023-05-16T07:12:00;13.10;99.90
7360;DHT22;3720;48.274;7.796;2023-05-16T07:14:32;13.10;99.90
7360;DHT22;3720;48.274;7.796;2023-05-16T07:17:04;13.20;99.90
7360;DHT22;3720;48.274;7.796;2023-05-16T07:19:38;13.20;99.90
7360;DHT22;3720;48.274;7.796;2023-05-16T07:22:10;13.20;99.90
7360;DHT22;3720;48.274;7.796;2023-05-16T07:24:41;13.20;99.90
7360;DHT22;3720;48.274;7.796;2023-05-16T07:27:13;13.10;99.90
7360;DHT22;3720;48.274;7.796;2023-05-16T07:29:46;13.10;99.90
7360;DHT22;3720;48.274;7.796;2023-05-16T07:32:17;13.20;99.90
7360;DHT22;3720;48.274;7.796;2023-05-16T07:34:51;13.20;99.90
7360;DHT22;3720;48.274;7.796;2023-05-16T07:37:23;13.10;99.90
7360;DHT22;3720;48.274;7.796;2023-05-16T07:39:55;13.10;99.90
7360;DHT22;3720;48.274;7.796;2023-05-16T07:42:26;13.10;99.90
7360;DHT22;3720;48.274;7.796;2023-05-16T07:44:59;13.10;99.90
7360;DHT22;3720;48.274;7.796;2023-05-16T07:47:31;13.10;99.90
7360;DHT22;3720;48.274;7.796;2023-05-16T07:50:05;13.00;99.90
7360;DHT22;3720;48.274;7.796;2023-05-16T07:52:37;13.00;99.90
7360;DHT22;3720;48.274;7.796;2023-05-16T07:55:09;13.00;99.90
7360;DHT22;3720;48.274;7.796;2023-05-16T07:57:42;13.00;99.90
7360;DHT22;3720;48.274;7.796;2023-05-16T08:00:15;12.90;99.90
7360;DHT22;3720;48.274;7.796;2023-05-16T08:02:47;12.90;99.90
7360;DHT22;3720;48.274;7.796;2023-05-16T08:05:20;12.90;99.90
7360;DHT22;3720;48.274;7.796;2023-05-16T08:24:13;12.90;99.90
7360;DHT22;3720;48.274;7.796;2023-05-16T08:26:44;13.20;99.90
7360;DHT22;3720;48.274;7.796;2023-05-16T08:29:16;13.20;99.90
7360;DHT22;3720;48.274;7.796;2023-05-16T08:31:48;13.20;99.90
7360;DHT22;3720;48.274;7.796;2023-05-16T08:34:20;13.20;99.90
7360;DHT22;3720;48.274;7.796;2023-05-16T08:36:52;13.30;99.90
7360;DHT22;3720;48.274;7.796;2023-05-16T08:39:26;13.40;99.90
7360;DHT22;3720;48.274;7.796;2023-05-16T08:42:00;13.40;99.90
7360;DHT22;3720;48.274;7.796;2023-05-16T08:44:32;13.40;99.90
7360;DHT22;3720;48.274;7.796;2023-05-16T08:47:10;13.40;99.90
7360;DHT22;3720;48.274;7.796;2023-05-16T08:49:43;13.40;99.90
7360;DHT22;3720;48.274;7.796;2023-05-16T08:52:19;13.40;99.90
7360;DHT22;3720;48.274;7.796;2023-05-16T08:54:54;13.40;99.90
7360;DHT22;3720;48.274;7.796;2023-05-16T08:58:02;13.40;99.90
7360;DHT22;3720;48.274;7.796;2023-05-16T09:00:35;13.50;99.90
7360;DHT22;3720;48.274;7.796;2023-05-16T09:03:07;13.50;99.90
7360;DHT22;3720;48.274;7.796;2023-05-16T09:05:39;13.50;99.90
7360;DHT22;3720;48.274;7.796;2023-05-16T09:08:11;13.50;99.90
7360;DHT22;3720;48.274;7.796;2023-05-16T09:10:44;13.50;99.90
7360;DHT22;3720;48.274;7.796;2023-05-16T09:13:16;13.40;99.90
7360;DHT22;3720;48.274;7.796;2023-05-16T09:16:10;13.30;99.90
7360;DHT22;3720;48.274;7.796;2023-05-16T09:18:44;13.20;99.90
7360;DHT22;3720;48.274;7.796;2023-05-16T09:21:16;13.20;99.90
7360;DHT22;3720;48.274;7.796;2023-05-16T09:23:48;13.20;99.90
7360;DHT22;3720;48.274;7.796;2023-05-16T09:26:22;13.20;99.90
7360;DHT22;3720;48.274;7.796;2023-05-16T09:28:54;13.20;99.90
7360;DHT22;3720;48.274;7.796;2023-05-16T09:31:27;13.20;99.90
7360;DHT22;3720;48.274;7.796;2023-05-16T09:34:07;13.20;99.90
7360;DHT22;3720;48.274;7.796;2023-05-16T09:36:40;13.20;99.90
7360;DHT22;3720;48.274;7.796;2023-05-16T09:39:14;13.20;99.90
7360;DHT22;3720;48.274;7.796;2023-05-16T09:41:51;13.20;99.90
7360;DHT22;3720;48.274;7.796;2023-05-16T09:44:23;13.30;99.90
7360;DHT22;3720;48.274;7.796;2023-05-16T09:46:55;13.30;99.90
7360;DHT22;3720;48.274;7.796;2023-05-16T09:49:27;13.30;99.90
7360;DHT22;3720;48.274;7.796;2023-05-16T09:52:00;13.30;99.90
7360;DHT22;3720;48.274;7.796;2023-05-16T09:54:33;13.30;99.90
7360;DHT22;3720;48.274;7.796;2023-05-16T09:57:07;13.30;99.90
7360;DHT22;3720;48.274;7.796;2023-05-16T09:59:39;13.30;99.90
7360;DHT22;3720;48.274;7.796;2023-05-16T10:02:12;13.20;99.90
7360;DHT22;3720;48.274;7.796;2023-05-16T10:04:44;13.20;99.90
7360;DHT22;3720;48.274;7.796;2023-05-16T10:07:17;13.20;99.90
7360;DHT22;3720;48.274;7.796;2023-05-16T10:09:50;13.20;99.90
7360;DHT22;3720;48.274;7.796;2023-05-16T10:12:28;13.20;99.90
7360;DHT22;3720;48.274;7.796;2023-05-16T10:15:02;13.10;99.90
7360;DHT22;3720;48.274;7.796;2023-05-16T10:17:35;13.10;99.90
7360;DHT22;3720;48.274;7.796;2023-05-16T10:20:23;13.20;99.90
7360;DHT22;3720;48.274;7.796;2023-05-16T10:22:59;13.10;99.90
7360;DHT22;3720;48.274;7.796;2023-05-16T10:25:34;13.10;99.90
7360;DHT22;3720;48.274;7.796;2023-05-16T10:28:09;13.10;99.90
7360;DHT22;3720;48.274;7.796;2023-05-16T10:30:43;13.20;99.90
7360;DHT22;3720;48.274;7.796;2023-05-16T10:33:17;13.20;99.90
7360;DHT22;3720;48.274;7.796;2023-05-16T10:35:50;13.20;99.90
7360;DHT22;3720;48.274;7.796;2023-05-16T10:38:22;13.20;99.90
7360;DHT22;3720;48.274;7.796;2023-05-16T10:40:55;13.20;99.90
7360;DHT22;3720;48.274;7.796;2023-05-16T10:43:29;13.40;99.90
7360;DHT22;3720;48.274;7.796;2023-05-16T10:46:04;13.30;99.90
7360;DHT22;3720;48.274;7.796;2023-05-16T10:48:37;13.30;99.90
7360;DHT22;3720;48.274;7.796;2023-05-16T10:51:39;13.30;99.90
7360;DHT22;3720;48.274;7.796;2023-05-16T10:54:11;13.30;99.90
7360;DHT22;3720;48.274;7.796;2023-05-16T10:56:54;13.20;99.90
7360;DHT22;3720;48.274;7.796;2023-05-16T10:59:28;13.30;99.90
7360;DHT22;3720;48.274;7.796;2023-05-16T11:02:00;13.20;99.90
7360;DHT22;3720;48.274;7.796;2023-05-16T11:04:44;13.20;99.90
7360;DHT22;3720;48.274;7.796;2023-05-16T11:07:18;13.20;99.90
7360;DHT22;3720;48.274;7.796;2023-05-16T11:10:13;13.10;99.90
7360;DHT22;3720;48.274;7.796;2023-05-16T11:12:48;13.00;99.90
7360;DHT22;3720;48.274;7.796;2023-05-16T11:15:23;13.00;99.90
7360;DHT22;3720;48.274;7.796;2023-05-16T11:18:06;12.90;99.90
7360;DHT22;3720;48.274;7.796;2023-05-16T11:20:39;12.90;99.90
7360;DHT22;3720;48.274;7.796;2023-05-16T11:23:18;12.90;99.90
7360;DHT22;3720;48.274;7.796;2023-05-16T11:25:53;12.90;99.90
7360;DHT22;3720;48.274;7.796;2023-05-16T11:28:26;13.00;99.90
7360;DHT22;3720;48.274;7.796;2023-05-16T11:30:59;13.00;99.90
7360;DHT22;3720;48.274;7.796;2023-05-16T11:33:34;13.00;99.90
7360;DHT22;3720;48.274;7.796;2023-05-16T11:36:07;12.90;99.90
7360;DHT22;3720;48.274;7.796;2023-05-16T11:38:41;13.00;99.90
7360;DHT22;3720;48.274;7.796;2023-05-16T11:41:13;13.00;99.90
7360;DHT22;3720;48.274;7.796;2023-05-16T11:43:47;12.90;99.90
7360;DHT22;3720;48.274;7.796;2023-05-16T11:46:20;12.90;99.90
7360;DHT22;3720;48.274;7.796;2023-05-16T11:48:52;12.90;99.90
7360;DHT22;3720;48.274;7.796;2023-05-16T11:51:24;12.90;99.90
7360;DHT22;3720;48.274;7.796;2023-05-16T11:53:57;12.90;99.90
7360;DHT22;3720;48.274;7.796;2023-05-16T11:56:28;12.90;99.90
7360;DHT22;3720;48.274;7.796;2023-05-16T11:59:01;12.90;99.90
7360;DHT22;3720;48.274;7.796;2023-05-16T12:01:36;12.80;99.90
7360;DHT22;3720;48.274;7.796;2023-05-16T12:04:09;12.80;99.90
7360;DHT22;3720;48.274;7.796;2023-05-16T12:06:42;12.80;99.90
7360;DHT22;3720;48.274;7.796;2023-05-16T12:09:14;12.70;99.90
7360;DHT22;3720;48.274;7.796;2023-05-16T12:11:46;12.70;99.90
7360;DHT22;3720;48.274;7.796;2023-05-16T12:14:18;12.70;99.90
7360;DHT22;3720;48.274;7.796;2023-05-16T12:16:52;12.80;99.90
7360;DHT22;3720;48.274;7.796;2023-05-16T12:19:25;12.70;99.90
7360;DHT22;3720;48.274;7.796;2023-05-16T12:21:57;12.70;99.90
7360;DHT22;3720;48.274;7.796;2023-05-16T12:24:29;12.70;99.90
7360;DHT22;3720;48.274;7.796;2023-05-16T12:27:01;12.70;99.90
7360;DHT22;3720;48.274;7.796;2023-05-16T12:29:34;12.80;99.90
7360;DHT22;3720;48.274;7.796;2023-05-16T12:32:08;12.80;99.90
7360;DHT22;3720;48.274;7.796;2023-05-16T12:34:48;12.80;99.90
7360;DHT22;3720;48.274;7.796;2023-05-16T12:37:20;12.80;99.90
7360;DHT22;3720;48.274;7.796;2023-05-16T12:39:58;12.80;99.90
7360;DHT22;3720;48.274;7.796;2023-05-16T12:42:31;12.80;99.90
7360;DHT22;3720;48.274;7.796;2023-05-16T12:45:03;12.80;99.90
7360;DHT22;3720;48.274;7.796;2023-05-16T12:47:37;12.80;99.90
7360;DHT22;3720;48.274;7.796;2023-05-16T12:50:09;12.80;99.90
7360;DHT22;3720;48.274;7.796;2023-05-16T12:52:47;12.70;99.90
7360;DHT22;3720;48.274;7.796;2023-05-16T12:55:21;12.70;99.90
7360;DHT22;3720;48.274;7.796;2023-05-16T12:57:54;12.80;99.90
7360;DHT22;3720;48.274;7.796;2023-05-16T13:00:27;12.80;99.90
7360;DHT22;3720;48.274;7.796;2023-05-16T13:03:00;12.80;99.90
7360;DHT22;3720;48.274;7.796;2023-05-16T13:05:32;12.70;99.90
7360;DHT22;3720;48.274;7.796;2023-05-16T13:08:04;12.70;99.90
7360;DHT22;3720;48.274;7.796;2023-05-16T13:10:37;12.80;99.90
7360;DHT22;3720;48.274;7.796;2023-05-16T13:13:09;12.70;99.90
7360;DHT22;3720;48.274;7.796;2023-05-16T13:15:41;12.70;99.90
7360;DHT22;3720;48.274;7.796;2023-05-16T13:18:15;12.60;99.90
7360;DHT22;3720;48.274;7.796;2023-05-16T13:20:47;12.60;99.90
7360;DHT22;3720;48.274;7.796;2023-05-16T13:23:18;12.60;99.90
7360;DHT22;3720;48.274;7.796;2023-05-16T13:25:50;12.70;99.90
7360;DHT22;3720;48.274;7.796;2023-05-16T13:28:22;12.70;99.90
7360;DHT22;3720;48.274;7.796;2023-05-16T13:30:54;12.80;99.90
7360;DHT22;3720;48.274;7.796;2023-05-16T13:33:27;12.80;99.90
7360;DHT22;3720;48.274;7.796;2023-05-16T13:35:59;12.80;99.90
7360;DHT22;3720;48.274;7.796;2023-05-16T13:38:31;12.80;99.90
7360;DHT22;3720;48.274;7.796;2023-05-16T13:41:03;12.90;99.90
7360;DHT22;3720;48.274;7.796;2023-05-16T13:43:35;12.90;99.90
7360;DHT22;3720;48.274;7.796;2023-05-16T13:46:07;12.80;99.90
7360;DHT22;3720;48.274;7.796;2023-05-16T13:48:40;12.90;99.90
7360;DHT22;3720;48.274;7.796;2023-05-16T13:51:12;12.90;99.90
7360;DHT22;3720;48.274;7.796;2023-05-16T13:53:44;12.90;99.90
7360;DHT22;3720;48.274;7.796;2023-05-16T13:56:16;12.90;99.90
7360;DHT22;3720;48.274;7.796;2023-05-16T13:58:48;12.90;99.90
7360;DHT22;3720;48.274;7.796;2023-05-16T14:01:21;12.90;99.90
7360;DHT22;3720;48.274;7.796;2023-05-16T14:03:54;12.90;99.90
7360;DHT22;3720;48.274;7.796;2023-05-16T14:06:26;12.80;99.90
7360;DHT22;3720;48.274;7.796;2023-05-16T14:08:58;12.80;99.90
7360;DHT22;3720;48.274;7.796;2023-05-16T14:11:31;12.80;99.90
7360;DHT22;3720;48.274;7.796;2023-05-16T14:14:03;12.80;99.90
7360;DHT22;3720;48.274;7.796;2023-05-16T14:16:35;12.80;99.90
7360;DHT22;3720;48.274;7.796;2023-05-16T14:19:08;12.80;99.90
7360;DHT22;3720;48.274;7.796;2023-05-16T14:21:40;12.80;99.90
7360;DHT22;3720;48.274;7.796;2023-05-16T14:24:12;12.80;99.90
7360;DHT22;3720;48.274;7.796;2023-05-16T14:26:44;12.80;99.90
7360;DHT22;3720;48.274;7.796;2023-05-16T14:29:16;12.80;99.90
7360;DHT22;3720;48.274;7.796;2023-05-16T14:31:48;12.80;99.90
7360;DHT22;3720;48.274;7.796;2023-05-16T14:34:21;12.80;99.90
7360;DHT22;3720;48.274;7.796;2023-05-16T14:36:53;12.80;99.90
7360;DHT22;3720;48.274;7.796;2023-05-16T14:39:25;12.80;99.90
7360;DHT22;3720;48.274;7.796;2023-05-16T14:41:57;12.70;99.90
7360;DHT22;3720;48.274;7.796;2023-05-16T14:44:29;12.70;99.90
7360;DHT22;3720;48.274;7.796;2023-05-16T14:47:01;12.70;99.90
7360;DHT22;3720;48.274;7.796;2023-05-16T14:49:35;12.70;99.90
7360;DHT22;3720;48.274;7.796;2023-05-16T14:52:07;12.70;99.90
7360;DHT22;3720;48.274;7.796;2023-05-16T14:54:39;12.60;99.90
7360;DHT22;3720;48.274;7.796;2023-05-16T14:57:10;12.60;99.90
7360;DHT22;3720;48.274;7.796;2023-05-16T14:59:42;12.60;99.90
7360;DHT22;3720;48.274;7.796;2023-05-16T15:02:14;12.60;99.90
7360;DHT22;3720;48.274;7.796;2023-05-16T15:04:48;12.60;99.90
7360;DHT22;3720;48.274;7.796;2023-05-16T15:07:19;12.50;99.90
7360;DHT22;3720;48.274;7.796;2023-05-16T15:09:51;12.50;99.90
7360;DHT22;3720;48.274;7.796;2023-05-16T15:12:23;12.50;99.90
7360;DHT22;3720;48.274;7.796;2023-05-16T15:14:55;12.50;99.90
7360;DHT22;3720;48.274;7.796;2023-05-16T15:17:27;12.50;99.90
7360;DHT22;3720;48.274;7.796;2023-05-16T15:20:00;12.50;99.90
7360;DHT22;3720;48.274;7.796;2023-05-16T15:22:33;12.40;99.90
7360;DHT22;3720;48.274;7.796;2023-05-16T15:25:06;12.50;99.90
7360;DHT22;3720;48.274;7.796;2023-05-16T15:27:38;12.50;99.90
7360;DHT22;3720;48.274;7.796;2023-05-16T15:30:11;12.40;99.90
7360;DHT22;3720;48.274;7.796;2023-05-16T15:32:44;12.40;99.90
7360;DHT22;3720;48.274;7.796;2023-05-16T15:35:17;12.50;99.90
7360;DHT22;3720;48.274;7.796;2023-05-16T15:37:49;12.50;99.90
7360;DHT22;3720;48.274;7.796;2023-05-16T15:40:22;12.50;99.90
7360;DHT22;3720;48.274;7.796;2023-05-16T15:42:54;12.60;99.90
7360;DHT22;3720;48.274;7.796;2023-05-16T15:45:26;12.70;99.90
7360;DHT22;3720;48.274;7.796;2023-05-16T15:47:58;12.80;99.90
7360;DHT22;3720;48.274;7.796;2023-05-16T15:50:33;12.80;99.90
7360;DHT22;3720;48.274;7.796;2023-05-16T15:53:05;12.90;99.90
7360;DHT22;3720;48.274;7.796;2023-05-16T15:55:37;12.90;99.90
7360;DHT22;3720;48.274;7.796;2023-05-16T15:58:09;13.00;99.90
7360;DHT22;3720;48.274;7.796;2023-05-16T16:00:41;12.90;99.90
7360;DHT22;3720;48.274;7.796;2023-05-16T16:03:15;13.00;99.90
7360;DHT22;3720;48.274;7.796;2023-05-16T16:05:49;12.90;99.90
7360;DHT22;3720;48.274;7.796;2023-05-16T16:08:21;12.90;99.90
7360;DHT22;3720;48.274;7.796;2023-05-16T16:10:53;13.00;99.90
7360;DHT22;3720;48.274;7.796;2023-05-16T16:13:25;13.00;99.90
7360;DHT22;3720;48.274;7.796;2023-05-16T16:15:57;13.00;99.90
7360;DHT22;3720;48.274;7.796;2023-05-16T16:18:29;13.00;99.90
7360;DHT22;3720;48.274;7.796;2023-05-16T16:21:03;13.00;99.90
7360;DHT22;3720;48.274;7.796;2023-05-16T16:23:35;12.90;99.90
7360;DHT22;3720;48.274;7.796;2023-05-16T16:26:07;12.90;99.90
7360;DHT22;3720;48.274;7.796;2023-05-16T16:28:39;12.90;99.90
7360;DHT22;3720;48.274;7.796;2023-05-16T16:31:11;12.90;99.90
7360;DHT22;3720;48.274;7.796;2023-05-16T16:33:43;12.90;99.90
7360;DHT22;3720;48.274;7.796;2023-05-16T16:36:19;12.90;99.90
7360;DHT22;3720;48.274;7.796;2023-05-16T16:38:51;12.90;99.90
7360;DHT22;3720;48.274;7.796;2023-05-16T16:41:23;12.80;99.90
7360;DHT22;3720;48.274;7.796;2023-05-16T16:43:55;12.90;99.90
7360;DHT22;3720;48.274;7.796;2023-05-16T16:46:27;12.90;99.90
7360;DHT22;3720;48.274;7.796;2023-05-16T16:49:00;12.90;99.90
7360;DHT22;3720;48.274;7.796;2023-05-16T16:51:33;12.90;99.90
7360;DHT22;3720;48.274;7.796;2023-05-16T16:54:05;12.90;99.90
7360;DHT22;3720;48.274;7.796;2023-05-16T16:56:37;13.00;99.90